Startpagina
METAR-TAF:

METAR-TAF

Vliegvelden :

Flughafen Mönchengladbach

Mönchengladbach, Duitsland

breedte: 51-13-49N, lengte: 006-30-16E, hoogte: 38 m

Actueel weer

Dit bericht is 30 minuten geleden gemaakt, om 04:20 UTC
Wind 2 kt uit het zuidwesten
Temperatuur -4°C
Vochtigheid 93%
Druk 1027 hPa
Zicht 10 km of meer

METAR: EDLN 070420Z AUTO 22002KT 9999 // NCD M04/M05 Q1027

Tijdstip: 05:50 (04:50 UTC)

Verwachting

Dit bericht is 11 uur en het 50 minuten geleden gemaakt, om 17:00 UTC
Verwachting geldig van 06 om 18 UTC tot 07 om 03 UTC
Wind 4 kt uit het noordoosten
Zicht 10 km of meer
geen wolken onder 1500 m en geen cumulonimbus

TAF: EDLN 061700Z 0618/0703 04004KT CAVOK

Waarnemingen en weersverwachtingen van meer dan 4000 vliegvelden (METAR en TAF).

De beschikbare stations zijn de gele en rode punten op de kaart.

Ga met uw muis naar het station om de naam te zien.

Klik dan om waarnemingen en weersverwachtingen te zien.

kaart wijzigen: klik op de groene knoppen met een zwart kruis om in te zoomen, op de groene knop met een streepje om uit te zoomen of op de groene pijlen voor aangrenzende kaarten.


METAR-TAF: